Aviation Digital Data Service (ADDS)

Output produced by METARs form (2020 UTC 31 January 2023)
found at http://www.aviationweather.gov/metar/data/
 
KILM 311953Z 12005KT 10SM OVC014 17/14 A3011 RMK AO2 SLP194 T01720139
KILM 311732Z 3118/0118 20004KT P6SM OVC017 
     FM010300 00000KT 4SM BR OVC006 
     FM010600 VRB03KT 3SM BR OVC004 
     FM011400 35008KT 5SM BR OVC007